sensor_id;sensor_type;location;lat;lon;timestamp;P1;durP1;ratioP1;P2;durP2;ratioP2
3379;SDS011;1703;51.964;7.642;2023-07-02T00:01:09;6.77;;;4.23;;
3379;SDS011;1703;51.964;7.642;2023-07-02T00:03:39;6.13;;;5.40;;
3379;SDS011;1703;51.964;7.642;2023-07-02T00:06:06;4.60;;;4.30;;
3379;SDS011;1703;51.964;7.642;2023-07-02T00:08:33;5.50;;;5.10;;
3379;SDS011;1703;51.964;7.642;2023-07-02T00:10:59;4.87;;;4.47;;
3379;SDS011;1703;51.964;7.642;2023-07-02T00:13:26;7.03;;;4.10;;
3379;SDS011;1703;51.964;7.642;2023-07-02T00:15:54;4.87;;;4.47;;
3379;SDS011;1703;51.964;7.642;2023-07-02T00:18:22;5.53;;;4.57;;
3379;SDS011;1703;51.964;7.642;2023-07-02T00:20:48;5.07;;;4.67;;
3379;SDS011;1703;51.964;7.642;2023-07-02T00:23:15;5.70;;;3.87;;
3379;SDS011;1703;51.964;7.642;2023-07-02T00:25:42;5.23;;;4.73;;
3379;SDS011;1703;51.964;7.642;2023-07-02T00:28:09;6.63;;;4.70;;
3379;SDS011;1703;51.964;7.642;2023-07-02T00:30:36;4.77;;;4.37;;
3379;SDS011;1703;51.964;7.642;2023-07-02T00:33:05;6.93;;;4.30;;
3379;SDS011;1703;51.964;7.642;2023-07-02T00:35:33;5.03;;;4.53;;
3379;SDS011;1703;51.964;7.642;2023-07-02T00:38:00;5.60;;;5.10;;
3379;SDS011;1703;51.964;7.642;2023-07-02T00:40:27;8.97;;;4.07;;
3379;SDS011;1703;51.964;7.642;2023-07-02T00:42:54;9.40;;;4.43;;
3379;SDS011;1703;51.964;7.642;2023-07-02T00:45:21;5.60;;;4.80;;
3379;SDS011;1703;51.964;7.642;2023-07-02T00:47:51;7.60;;;5.33;;
3379;SDS011;1703;51.964;7.642;2023-07-02T00:50:22;7.90;;;5.63;;
3379;SDS011;1703;51.964;7.642;2023-07-02T00:52:49;8.67;;;5.10;;
3379;SDS011;1703;51.964;7.642;2023-07-02T00:55:17;6.43;;;5.57;;
3379;SDS011;1703;51.964;7.642;2023-07-02T00:57:44;15.43;;;5.90;;
3379;SDS011;1703;51.964;7.642;2023-07-02T01:00:11;6.50;;;5.27;;
3379;SDS011;1703;51.964;7.642;2023-07-02T01:02:39;8.40;;;6.60;;
3379;SDS011;1703;51.964;7.642;2023-07-02T01:05:09;9.53;;;6.97;;
3379;SDS011;1703;51.964;7.642;2023-07-02T01:07:42;7.90;;;6.30;;
3379;SDS011;1703;51.964;7.642;2023-07-02T01:10:09;8.23;;;7.43;;
3379;SDS011;1703;51.964;7.642;2023-07-02T01:12:35;6.30;;;5.60;;
3379;SDS011;1703;51.964;7.642;2023-07-02T01:15:04;9.77;;;6.17;;
3379;SDS011;1703;51.964;7.642;2023-07-02T01:17:32;9.27;;;6.63;;
3379;SDS011;1703;51.964;7.642;2023-07-02T01:20:07;7.40;;;6.70;;
3379;SDS011;1703;51.964;7.642;2023-07-02T01:22:35;7.30;;;6.30;;
3379;SDS011;1703;51.964;7.642;2023-07-02T01:25:03;11.60;;;7.50;;
3379;SDS011;1703;51.964;7.642;2023-07-02T01:27:35;7.07;;;6.37;;
3379;SDS011;1703;51.964;7.642;2023-07-02T01:30:02;9.87;;;6.30;;
3379;SDS011;1703;51.964;7.642;2023-07-02T01:32:29;7.40;;;6.70;;
3379;SDS011;1703;51.964;7.642;2023-07-02T01:34:56;13.47;;;7.93;;
3379;SDS011;1703;51.964;7.642;2023-07-02T01:37:25;10.43;;;6.97;;
3379;SDS011;1703;51.964;7.642;2023-07-02T01:39:52;8.17;;;7.17;;
3379;SDS011;1703;51.964;7.642;2023-07-02T01:42:19;8.93;;;6.87;;
3379;SDS011;1703;51.964;7.642;2023-07-02T01:44:46;12.57;;;7.37;;
3379;SDS011;1703;51.964;7.642;2023-07-02T01:47:14;13.20;;;6.83;;
3379;SDS011;1703;51.964;7.642;2023-07-02T01:49:41;9.30;;;6.53;;
3379;SDS011;1703;51.964;7.642;2023-07-02T01:52:08;8.17;;;7.17;;
3379;SDS011;1703;51.964;7.642;2023-07-02T01:54:37;8.70;;;7.53;;
3379;SDS011;1703;51.964;7.642;2023-07-02T01:57:04;10.57;;;6.53;;
3379;SDS011;1703;51.964;7.642;2023-07-02T01:59:31;13.70;;;8.63;;
3379;SDS011;1703;51.964;7.642;2023-07-02T02:01:57;15.37;;;8.83;;
3379;SDS011;1703;51.964;7.642;2023-07-02T02:04:24;9.30;;;7.70;;
3379;SDS011;1703;51.964;7.642;2023-07-02T02:06:52;13.50;;;8.23;;
3379;SDS011;1703;51.964;7.642;2023-07-02T02:09:19;9.33;;;7.63;;
3379;SDS011;1703;51.964;7.642;2023-07-02T02:11:47;10.20;;;8.37;;
3379;SDS011;1703;51.964;7.642;2023-07-02T02:14:15;13.27;;;8.33;;
3379;SDS011;1703;51.964;7.642;2023-07-02T02:16:42;14.80;;;8.90;;
3379;SDS011;1703;51.964;7.642;2023-07-02T02:19:10;14.53;;;7.63;;
3379;SDS011;1703;51.964;7.642;2023-07-02T02:21:37;13.30;;;7.53;;
3379;SDS011;1703;51.964;7.642;2023-07-02T02:24:05;12.00;;;8.17;;
3379;SDS011;1703;51.964;7.642;2023-07-02T02:26:32;11.40;;;7.90;;
3379;SDS011;1703;51.964;7.642;2023-07-02T02:29:00;15.20;;;7.83;;
3379;SDS011;1703;51.964;7.642;2023-07-02T02:31:27;11.30;;;8.57;;
3379;SDS011;1703;51.964;7.642;2023-07-02T02:33:55;10.23;;;8.17;;
3379;SDS011;1703;51.964;7.642;2023-07-02T02:36:22;11.33;;;8.37;;
3379;SDS011;1703;51.964;7.642;2023-07-02T02:38:49;11.03;;;7.93;;
3379;SDS011;1703;51.964;7.642;2023-07-02T02:41:16;9.10;;;7.57;;
3379;SDS011;1703;51.964;7.642;2023-07-02T02:43:47;9.43;;;6.53;;
3379;SDS011;1703;51.964;7.642;2023-07-02T02:46:20;13.03;;;8.00;;
3379;SDS011;1703;51.964;7.642;2023-07-02T02:48:47;11.37;;;7.80;;
3379;SDS011;1703;51.964;7.642;2023-07-02T02:51:14;11.23;;;7.23;;
3379;SDS011;1703;51.964;7.642;2023-07-02T02:53:41;15.07;;;7.90;;
3379;SDS011;1703;51.964;7.642;2023-07-02T02:56:08;17.23;;;8.00;;
3379;SDS011;1703;51.964;7.642;2023-07-02T02:58:35;13.43;;;8.47;;
3379;SDS011;1703;51.964;7.642;2023-07-02T03:01:02;15.30;;;7.70;;
3379;SDS011;1703;51.964;7.642;2023-07-02T03:03:38;18.33;;;7.97;;
3379;SDS011;1703;51.964;7.642;2023-07-02T03:06:05;19.73;;;8.30;;
3379;SDS011;1703;51.964;7.642;2023-07-02T03:08:32;15.53;;;7.70;;
3379;SDS011;1703;51.964;7.642;2023-07-02T03:10:59;13.57;;;7.10;;
3379;SDS011;1703;51.964;7.642;2023-07-02T03:13:26;14.97;;;6.90;;
3379;SDS011;1703;51.964;7.642;2023-07-02T03:15:53;15.20;;;7.00;;
3379;SDS011;1703;51.964;7.642;2023-07-02T03:18:20;16.53;;;6.90;;
3379;SDS011;1703;51.964;7.642;2023-07-02T03:20:48;15.17;;;6.10;;
3379;SDS011;1703;51.964;7.642;2023-07-02T03:23:15;13.13;;;6.10;;
3379;SDS011;1703;51.964;7.642;2023-07-02T03:25:41;10.90;;;5.33;;
3379;SDS011;1703;51.964;7.642;2023-07-02T03:28:08;10.60;;;6.23;;
3379;SDS011;1703;51.964;7.642;2023-07-02T03:30:35;8.70;;;6.17;;
3379;SDS011;1703;51.964;7.642;2023-07-02T03:33:02;9.83;;;5.30;;
3379;SDS011;1703;51.964;7.642;2023-07-02T03:35:29;12.93;;;6.07;;
3379;SDS011;1703;51.964;7.642;2023-07-02T03:37:57;14.83;;;6.50;;
3379;SDS011;1703;51.964;7.642;2023-07-02T03:40:24;23.13;;;6.73;;
3379;SDS011;1703;51.964;7.642;2023-07-02T03:42:51;15.83;;;6.17;;
3379;SDS011;1703;51.964;7.642;2023-07-02T03:45:18;12.43;;;6.60;;
3379;SDS011;1703;51.964;7.642;2023-07-02T03:47:45;15.10;;;6.30;;
3379;SDS011;1703;51.964;7.642;2023-07-02T03:50:12;13.37;;;7.30;;
3379;SDS011;1703;51.964;7.642;2023-07-02T03:52:39;12.13;;;6.37;;
3379;SDS011;1703;51.964;7.642;2023-07-02T03:55:07;17.00;;;7.20;;
3379;SDS011;1703;51.964;7.642;2023-07-02T03:57:34;21.83;;;8.60;;
3379;SDS011;1703;51.964;7.642;2023-07-02T04:00:01;15.27;;;6.80;;
3379;SDS011;1703;51.964;7.642;2023-07-02T04:02:40;21.20;;;8.63;;
3379;SDS011;1703;51.964;7.642;2023-07-02T04:05:06;12.87;;;8.00;;
3379;SDS011;1703;51.964;7.642;2023-07-02T04:07:33;17.97;;;9.33;;
3379;SDS011;1703;51.964;7.642;2023-07-02T04:10:00;19.43;;;9.10;;
3379;SDS011;1703;51.964;7.642;2023-07-02T04:12:28;23.63;;;9.67;;
3379;SDS011;1703;51.964;7.642;2023-07-02T04:14:56;16.47;;;9.80;;
3379;SDS011;1703;51.964;7.642;2023-07-02T04:17:22;18.50;;;8.50;;
3379;SDS011;1703;51.964;7.642;2023-07-02T04:19:49;18.83;;;9.13;;
3379;SDS011;1703;51.964;7.642;2023-07-02T04:22:16;15.00;;;8.90;;
3379;SDS011;1703;51.964;7.642;2023-07-02T04:24:44;25.23;;;9.07;;
3379;SDS011;1703;51.964;7.642;2023-07-02T04:27:14;16.47;;;9.77;;
3379;SDS011;1703;51.964;7.642;2023-07-02T04:29:43;20.87;;;10.17;;
3379;SDS011;1703;51.964;7.642;2023-07-02T04:32:11;20.83;;;9.03;;
3379;SDS011;1703;51.964;7.642;2023-07-02T04:34:37;20.80;;;8.20;;
3379;SDS011;1703;51.964;7.642;2023-07-02T04:37:04;27.13;;;8.87;;
3379;SDS011;1703;51.964;7.642;2023-07-02T04:39:31;24.03;;;9.20;;
3379;SDS011;1703;51.964;7.642;2023-07-02T04:41:59;22.27;;;10.20;;
3379;SDS011;1703;51.964;7.642;2023-07-02T04:44:25;11.00;;;7.03;;
3379;SDS011;1703;51.964;7.642;2023-07-02T04:46:57;18.30;;;8.63;;
3379;SDS011;1703;51.964;7.642;2023-07-02T04:49:24;10.40;;;7.27;;
3379;SDS011;1703;51.964;7.642;2023-07-02T04:51:51;24.33;;;8.50;;
3379;SDS011;1703;51.964;7.642;2023-07-02T04:54:18;14.80;;;7.97;;
3379;SDS011;1703;51.964;7.642;2023-07-02T04:56:46;25.03;;;9.50;;
3379;SDS011;1703;51.964;7.642;2023-07-02T04:59:14;23.53;;;8.83;;
3379;SDS011;1703;51.964;7.642;2023-07-02T05:01:40;18.90;;;10.30;;
3379;SDS011;1703;51.964;7.642;2023-07-02T05:04:09;21.57;;;8.93;;
3379;SDS011;1703;51.964;7.642;2023-07-02T05:06:37;17.03;;;7.63;;
3379;SDS011;1703;51.964;7.642;2023-07-02T05:09:04;15.80;;;8.23;;
3379;SDS011;1703;51.964;7.642;2023-07-02T05:11:31;27.67;;;8.23;;
3379;SDS011;1703;51.964;7.642;2023-07-02T05:13:57;19.53;;;9.30;;
3379;SDS011;1703;51.964;7.642;2023-07-02T05:16:24;22.10;;;8.20;;
3379;SDS011;1703;51.964;7.642;2023-07-02T05:18:51;23.10;;;8.90;;
3379;SDS011;1703;51.964;7.642;2023-07-02T05:21:19;14.80;;;7.63;;
3379;SDS011;1703;51.964;7.642;2023-07-02T05:23:46;19.70;;;9.23;;
3379;SDS011;1703;51.964;7.642;2023-07-02T05:26:13;12.83;;;7.37;;
3379;SDS011;1703;51.964;7.642;2023-07-02T05:28:40;21.90;;;7.50;;
3379;SDS011;1703;51.964;7.642;2023-07-02T05:31:07;13.10;;;7.60;;
3379;SDS011;1703;51.964;7.642;2023-07-02T05:33:33;14.97;;;7.73;;
3379;SDS011;1703;51.964;7.642;2023-07-02T05:36:00;20.97;;;7.87;;
3379;SDS011;1703;51.964;7.642;2023-07-02T05:38:28;16.53;;;8.73;;
3379;SDS011;1703;51.964;7.642;2023-07-02T05:40:55;10.63;;;6.83;;
3379;SDS011;1703;51.964;7.642;2023-07-02T05:43:22;15.93;;;7.97;;
3379;SDS011;1703;51.964;7.642;2023-07-02T05:45:50;19.73;;;8.00;;
3379;SDS011;1703;51.964;7.642;2023-07-02T05:48:17;13.10;;;8.00;;
3379;SDS011;1703;51.964;7.642;2023-07-02T05:50:44;18.90;;;8.63;;
3379;SDS011;1703;51.964;7.642;2023-07-02T05:53:11;26.13;;;7.23;;
3379;SDS011;1703;51.964;7.642;2023-07-02T05:55:39;18.20;;;7.80;;
3379;SDS011;1703;51.964;7.642;2023-07-02T05:58:06;17.20;;;7.43;;
3379;SDS011;1703;51.964;7.642;2023-07-02T06:00:33;21.47;;;7.80;;
3379;SDS011;1703;51.964;7.642;2023-07-02T06:03:00;15.73;;;7.47;;
3379;SDS011;1703;51.964;7.642;2023-07-02T06:05:27;18.97;;;7.73;;
3379;SDS011;1703;51.964;7.642;2023-07-02T06:07:55;19.60;;;7.33;;
3379;SDS011;1703;51.964;7.642;2023-07-02T06:10:21;17.60;;;7.43;;
3379;SDS011;1703;51.964;7.642;2023-07-02T06:12:50;17.23;;;6.83;;
3379;SDS011;1703;51.964;7.642;2023-07-02T06:15:17;21.90;;;7.40;;
3379;SDS011;1703;51.964;7.642;2023-07-02T06:17:44;22.73;;;8.10;;
3379;SDS011;1703;51.964;7.642;2023-07-02T06:20:11;18.23;;;7.47;;
3379;SDS011;1703;51.964;7.642;2023-07-02T06:22:38;13.60;;;7.40;;
3379;SDS011;1703;51.964;7.642;2023-07-02T06:25:06;22.83;;;7.60;;
3379;SDS011;1703;51.964;7.642;2023-07-02T06:27:33;18.77;;;8.40;;
3379;SDS011;1703;51.964;7.642;2023-07-02T06:30:01;17.07;;;5.97;;
3379;SDS011;1703;51.964;7.642;2023-07-02T06:32:28;19.27;;;9.50;;
3379;SDS011;1703;51.964;7.642;2023-07-02T06:34:54;13.83;;;7.57;;
3379;SDS011;1703;51.964;7.642;2023-07-02T06:37:21;21.33;;;8.73;;
3379;SDS011;1703;51.964;7.642;2023-07-02T06:39:48;27.43;;;9.70;;
3379;SDS011;1703;51.964;7.642;2023-07-02T06:42:15;16.77;;;7.27;;
3379;SDS011;1703;51.964;7.642;2023-07-02T06:44:43;22.20;;;9.30;;
3379;SDS011;1703;51.964;7.642;2023-07-02T06:47:11;16.23;;;7.23;;
3379;SDS011;1703;51.964;7.642;2023-07-02T06:49:38;24.63;;;8.70;;
3379;SDS011;1703;51.964;7.642;2023-07-02T06:52:04;21.57;;;8.10;;
3379;SDS011;1703;51.964;7.642;2023-07-02T06:54:32;18.20;;;8.67;;
3379;SDS011;1703;51.964;7.642;2023-07-02T06:56:59;17.63;;;8.00;;
3379;SDS011;1703;51.964;7.642;2023-07-02T06:59:26;25.33;;;8.80;;
3379;SDS011;1703;51.964;7.642;2023-07-02T07:01:53;20.00;;;9.90;;
3379;SDS011;1703;51.964;7.642;2023-07-02T07:04:21;17.60;;;8.50;;
3379;SDS011;1703;51.964;7.642;2023-07-02T07:06:48;24.70;;;7.10;;
3379;SDS011;1703;51.964;7.642;2023-07-02T07:09:15;18.97;;;8.50;;
3379;SDS011;1703;51.964;7.642;2023-07-02T07:11:43;20.53;;;7.60;;
3379;SDS011;1703;51.964;7.642;2023-07-02T07:14:09;21.53;;;7.90;;
3379;SDS011;1703;51.964;7.642;2023-07-02T07:16:36;20.30;;;7.70;;
3379;SDS011;1703;51.964;7.642;2023-07-02T07:19:03;20.70;;;7.27;;
3379;SDS011;1703;51.964;7.642;2023-07-02T07:21:32;17.60;;;6.80;;
3379;SDS011;1703;51.964;7.642;2023-07-02T07:23:59;20.53;;;7.67;;
3379;SDS011;1703;51.964;7.642;2023-07-02T07:26:25;14.77;;;7.60;;
3379;SDS011;1703;51.964;7.642;2023-07-02T07:28:52;21.60;;;7.57;;
3379;SDS011;1703;51.964;7.642;2023-07-02T07:31:21;18.50;;;8.17;;
3379;SDS011;1703;51.964;7.642;2023-07-02T07:33:48;16.27;;;7.83;;
3379;SDS011;1703;51.964;7.642;2023-07-02T07:36:14;13.93;;;7.40;;
3379;SDS011;1703;51.964;7.642;2023-07-02T07:38:44;16.70;;;8.70;;
3379;SDS011;1703;51.964;7.642;2023-07-02T07:41:10;13.40;;;8.10;;
3379;SDS011;1703;51.964;7.642;2023-07-02T07:43:37;17.63;;;9.00;;
3379;SDS011;1703;51.964;7.642;2023-07-02T07:46:04;9.03;;;6.27;;
3379;SDS011;1703;51.964;7.642;2023-07-02T07:48:31;15.97;;;6.77;;
3379;SDS011;1703;51.964;7.642;2023-07-02T07:50:58;30.80;;;9.37;;
3379;SDS011;1703;51.964;7.642;2023-07-02T07:53:25;20.23;;;8.33;;
3379;SDS011;1703;51.964;7.642;2023-07-02T07:55:53;20.90;;;8.30;;
3379;SDS011;1703;51.964;7.642;2023-07-02T07:58:19;18.00;;;7.13;;
3379;SDS011;1703;51.964;7.642;2023-07-02T08:00:46;18.60;;;7.13;;
3379;SDS011;1703;51.964;7.642;2023-07-02T08:03:13;14.93;;;7.30;;
3379;SDS011;1703;51.964;7.642;2023-07-02T08:05:40;18.53;;;7.50;;
3379;SDS011;1703;51.964;7.642;2023-07-02T08:08:07;12.63;;;6.50;;
3379;SDS011;1703;51.964;7.642;2023-07-02T08:10:34;14.00;;;7.00;;
3379;SDS011;1703;51.964;7.642;2023-07-02T08:13:02;29.07;;;8.37;;
3379;SDS011;1703;51.964;7.642;2023-07-02T08:15:29;20.03;;;7.27;;
3379;SDS011;1703;51.964;7.642;2023-07-02T08:17:56;15.43;;;5.70;;
3379;SDS011;1703;51.964;7.642;2023-07-02T08:20:24;20.93;;;6.87;;
3379;SDS011;1703;51.964;7.642;2023-07-02T08:22:50;10.03;;;5.17;;
3379;SDS011;1703;51.964;7.642;2023-07-02T08:25:17;17.20;;;6.93;;
3379;SDS011;1703;51.964;7.642;2023-07-02T08:27:46;10.53;;;5.30;;
3379;SDS011;1703;51.964;7.642;2023-07-02T08:30:14;13.03;;;6.80;;
3379;SDS011;1703;51.964;7.642;2023-07-02T08:32:41;15.33;;;6.03;;
3379;SDS011;1703;51.964;7.642;2023-07-02T08:35:08;14.70;;;5.87;;
3379;SDS011;1703;51.964;7.642;2023-07-02T08:37:35;10.53;;;5.60;;
3379;SDS011;1703;51.964;7.642;2023-07-02T08:40:02;13.93;;;6.07;;
3379;SDS011;1703;51.964;7.642;2023-07-02T08:42:30;7.03;;;4.50;;
3379;SDS011;1703;51.964;7.642;2023-07-02T08:44:57;13.80;;;5.80;;
3379;SDS011;1703;51.964;7.642;2023-07-02T08:47:27;14.57;;;5.70;;
3379;SDS011;1703;51.964;7.642;2023-07-02T08:49:54;13.17;;;6.20;;
3379;SDS011;1703;51.964;7.642;2023-07-02T08:52:21;13.90;;;6.13;;
3379;SDS011;1703;51.964;7.642;2023-07-02T08:54:48;20.60;;;6.20;;
3379;SDS011;1703;51.964;7.642;2023-07-02T08:57:15;16.20;;;7.20;;
3379;SDS011;1703;51.964;7.642;2023-07-02T08:59:41;11.80;;;5.27;;
3379;SDS011;1703;51.964;7.642;2023-07-02T09:02:08;15.43;;;6.60;;
3379;SDS011;1703;51.964;7.642;2023-07-02T09:04:37;16.20;;;6.20;;
3379;SDS011;1703;51.964;7.642;2023-07-02T09:07:04;11.90;;;5.70;;
3379;SDS011;1703;51.964;7.642;2023-07-02T09:09:31;10.37;;;6.40;;
3379;SDS011;1703;51.964;7.642;2023-07-02T09:11:59;12.33;;;5.60;;
3379;SDS011;1703;51.964;7.642;2023-07-02T09:14:26;11.40;;;5.73;;
3379;SDS011;1703;51.964;7.642;2023-07-02T09:17:04;12.47;;;6.03;;
3379;SDS011;1703;51.964;7.642;2023-07-02T09:19:33;11.83;;;6.00;;
3379;SDS011;1703;51.964;7.642;2023-07-02T09:22:02;16.40;;;5.77;;
3379;SDS011;1703;51.964;7.642;2023-07-02T09:24:31;12.70;;;5.70;;
3379;SDS011;1703;51.964;7.642;2023-07-02T09:26:59;14.80;;;6.30;;
3379;SDS011;1703;51.964;7.642;2023-07-02T09:29:27;8.17;;;5.33;;
3379;SDS011;1703;51.964;7.642;2023-07-02T09:31:55;14.00;;;5.70;;
3379;SDS011;1703;51.964;7.642;2023-07-02T09:34:27;12.60;;;5.97;;
3379;SDS011;1703;51.964;7.642;2023-07-02T09:36:55;15.63;;;6.03;;
3379;SDS011;1703;51.964;7.642;2023-07-02T09:39:26;11.83;;;5.63;;
3379;SDS011;1703;51.964;7.642;2023-07-02T09:41:54;10.47;;;5.60;;
3379;SDS011;1703;51.964;7.642;2023-07-02T09:44:23;10.03;;;6.07;;
3379;SDS011;1703;51.964;7.642;2023-07-02T09:47:04;10.13;;;5.50;;
3379;SDS011;1703;51.964;7.642;2023-07-02T09:49:32;13.47;;;6.37;;
3379;SDS011;1703;51.964;7.642;2023-07-02T09:52:00;10.30;;;5.77;;
3379;SDS011;1703;51.964;7.642;2023-07-02T09:54:30;11.23;;;4.70;;
3379;SDS011;1703;51.964;7.642;2023-07-02T09:56:58;15.40;;;6.47;;
3379;SDS011;1703;51.964;7.642;2023-07-02T09:59:25;10.73;;;6.20;;
3379;SDS011;1703;51.964;7.642;2023-07-02T10:01:52;13.97;;;6.13;;
3379;SDS011;1703;51.964;7.642;2023-07-02T10:04:19;8.90;;;5.27;;
3379;SDS011;1703;51.964;7.642;2023-07-02T10:06:49;16.57;;;6.27;;
3379;SDS011;1703;51.964;7.642;2023-07-02T10:09:17;11.37;;;6.20;;
3379;SDS011;1703;51.964;7.642;2023-07-02T10:11:46;14.63;;;6.67;;
3379;SDS011;1703;51.964;7.642;2023-07-02T10:14:13;14.70;;;6.20;;
3379;SDS011;1703;51.964;7.642;2023-07-02T10:16:50;10.43;;;5.60;;
3379;SDS011;1703;51.964;7.642;2023-07-02T10:19:18;9.50;;;6.30;;
3379;SDS011;1703;51.964;7.642;2023-07-02T10:21:45;11.80;;;6.20;;
3379;SDS011;1703;51.964;7.642;2023-07-02T10:24:15;8.53;;;5.60;;
3379;SDS011;1703;51.964;7.642;2023-07-02T10:26:53;12.53;;;5.70;;
3379;SDS011;1703;51.964;7.642;2023-07-02T10:29:22;16.27;;;5.97;;
3379;SDS011;1703;51.964;7.642;2023-07-02T10:31:49;10.67;;;5.67;;
3379;SDS011;1703;51.964;7.642;2023-07-02T10:34:16;11.40;;;6.80;;
3379;SDS011;1703;51.964;7.642;2023-07-02T10:36:54;10.10;;;6.27;;
3379;SDS011;1703;51.964;7.642;2023-07-02T10:39:21;15.13;;;7.43;;
3379;SDS011;1703;51.964;7.642;2023-07-02T10:41:48;12.90;;;5.80;;
3379;SDS011;1703;51.964;7.642;2023-07-02T10:44:16;10.07;;;5.77;;
3379;SDS011;1703;51.964;7.642;2023-07-02T10:46:44;11.50;;;5.10;;
3379;SDS011;1703;51.964;7.642;2023-07-02T10:49:11;11.77;;;4.60;;
3379;SDS011;1703;51.964;7.642;2023-07-02T10:51:38;10.53;;;6.17;;
3379;SDS011;1703;51.964;7.642;2023-07-02T10:54:05;8.40;;;4.90;;
3379;SDS011;1703;51.964;7.642;2023-07-02T10:56:32;11.27;;;5.17;;
3379;SDS011;1703;51.964;7.642;2023-07-02T10:58:59;10.80;;;5.40;;
3379;SDS011;1703;51.964;7.642;2023-07-02T11:01:27;11.10;;;5.80;;
3379;SDS011;1703;51.964;7.642;2023-07-02T11:03:55;12.37;;;5.57;;
3379;SDS011;1703;51.964;7.642;2023-07-02T11:06:24;15.90;;;7.87;;
3379;SDS011;1703;51.964;7.642;2023-07-02T11:08:51;14.93;;;6.87;;
3379;SDS011;1703;51.964;7.642;2023-07-02T11:11:19;24.17;;;5.50;;
3379;SDS011;1703;51.964;7.642;2023-07-02T11:13:48;13.43;;;6.30;;
3379;SDS011;1703;51.964;7.642;2023-07-02T11:16:17;7.57;;;4.80;;
3379;SDS011;1703;51.964;7.642;2023-07-02T11:18:46;9.00;;;5.30;;
3379;SDS011;1703;51.964;7.642;2023-07-02T11:21:13;9.07;;;4.90;;
3379;SDS011;1703;51.964;7.642;2023-07-02T11:23:40;12.93;;;6.30;;
3379;SDS011;1703;51.964;7.642;2023-07-02T11:26:07;14.93;;;5.67;;
3379;SDS011;1703;51.964;7.642;2023-07-02T11:28:34;5.80;;;4.60;;
3379;SDS011;1703;51.964;7.642;2023-07-02T11:31:01;19.13;;;6.40;;
3379;SDS011;1703;51.964;7.642;2023-07-02T11:33:34;17.50;;;7.30;;
3379;SDS011;1703;51.964;7.642;2023-07-02T11:36:03;20.93;;;5.80;;
3379;SDS011;1703;51.964;7.642;2023-07-02T11:38:30;10.30;;;6.20;;
3379;SDS011;1703;51.964;7.642;2023-07-02T11:40:57;10.20;;;5.03;;
3379;SDS011;1703;51.964;7.642;2023-07-02T11:43:24;13.43;;;7.43;;
3379;SDS011;1703;51.964;7.642;2023-07-02T11:45:52;10.03;;;5.30;;
3379;SDS011;1703;51.964;7.642;2023-07-02T11:48:19;14.93;;;5.00;;
3379;SDS011;1703;51.964;7.642;2023-07-02T11:50:45;10.97;;;5.07;;
3379;SDS011;1703;51.964;7.642;2023-07-02T11:53:14;19.63;;;4.50;;
3379;SDS011;1703;51.964;7.642;2023-07-02T11:55:40;8.43;;;4.90;;
3379;SDS011;1703;51.964;7.642;2023-07-02T11:58:07;11.30;;;5.03;;
3379;SDS011;1703;51.964;7.642;2023-07-02T12:00:34;7.27;;;4.60;;
3379;SDS011;1703;51.964;7.642;2023-07-02T12:03:01;8.00;;;4.40;;
3379;SDS011;1703;51.964;7.642;2023-07-02T12:05:27;10.23;;;5.33;;
3379;SDS011;1703;51.964;7.642;2023-07-02T12:07:54;13.07;;;5.23;;
3379;SDS011;1703;51.964;7.642;2023-07-02T12:10:22;13.83;;;5.83;;
3379;SDS011;1703;51.964;7.642;2023-07-02T12:12:49;9.93;;;5.00;;
3379;SDS011;1703;51.964;7.642;2023-07-02T12:15:16;17.30;;;5.50;;
3379;SDS011;1703;51.964;7.642;2023-07-02T12:17:43;11.13;;;5.83;;
3379;SDS011;1703;51.964;7.642;2023-07-02T12:20:10;11.67;;;6.43;;
3379;SDS011;1703;51.964;7.642;2023-07-02T12:22:37;10.50;;;5.47;;
3379;SDS011;1703;51.964;7.642;2023-07-02T12:25:04;9.60;;;4.97;;
3379;SDS011;1703;51.964;7.642;2023-07-02T12:27:33;11.83;;;6.60;;
3379;SDS011;1703;51.964;7.642;2023-07-02T12:30:00;10.33;;;5.60;;
3379;SDS011;1703;51.964;7.642;2023-07-02T12:32:26;13.30;;;6.00;;
3379;SDS011;1703;51.964;7.642;2023-07-02T12:34:54;11.17;;;6.37;;
3379;SDS011;1703;51.964;7.642;2023-07-02T12:37:20;13.70;;;6.03;;
3379;SDS011;1703;51.964;7.642;2023-07-02T12:39:47;16.10;;;6.10;;
3379;SDS011;1703;51.964;7.642;2023-07-02T12:42:15;11.80;;;6.50;;
3379;SDS011;1703;51.964;7.642;2023-07-02T12:44:43;11.13;;;5.70;;
3379;SDS011;1703;51.964;7.642;2023-07-02T12:47:10;11.47;;;6.10;;
3379;SDS011;1703;51.964;7.642;2023-07-02T12:49:36;10.27;;;5.63;;
3379;SDS011;1703;51.964;7.642;2023-07-02T12:52:03;11.77;;;5.90;;
3379;SDS011;1703;51.964;7.642;2023-07-02T12:54:30;15.07;;;4.87;;
3379;SDS011;1703;51.964;7.642;2023-07-02T12:56:57;11.73;;;5.60;;
3379;SDS011;1703;51.964;7.642;2023-07-02T12:59:24;14.00;;;6.17;;
3379;SDS011;1703;51.964;7.642;2023-07-02T13:01:53;17.00;;;5.70;;
3379;SDS011;1703;51.964;7.642;2023-07-02T13:04:20;12.80;;;6.20;;
3379;SDS011;1703;51.964;7.642;2023-07-02T13:06:46;8.20;;;4.87;;
3379;SDS011;1703;51.964;7.642;2023-07-02T13:09:13;13.00;;;5.97;;
3379;SDS011;1703;51.964;7.642;2023-07-02T13:11:40;11.20;;;4.90;;
3379;SDS011;1703;51.964;7.642;2023-07-02T13:14:07;9.10;;;5.07;;
3379;SDS011;1703;51.964;7.642;2023-07-02T13:16:33;8.77;;;5.13;;
3379;SDS011;1703;51.964;7.642;2023-07-02T13:19:01;8.53;;;5.17;;
3379;SDS011;1703;51.964;7.642;2023-07-02T13:21:28;13.10;;;6.60;;
3379;SDS011;1703;51.964;7.642;2023-07-02T13:23:55;10.70;;;5.77;;
3379;SDS011;1703;51.964;7.642;2023-07-02T13:26:22;12.17;;;6.60;;
3379;SDS011;1703;51.964;7.642;2023-07-02T13:28:49;11.67;;;5.93;;
3379;SDS011;1703;51.964;7.642;2023-07-02T13:31:16;9.40;;;5.20;;
3379;SDS011;1703;51.964;7.642;2023-07-02T13:33:42;13.17;;;5.50;;
3379;SDS011;1703;51.964;7.642;2023-07-02T13:36:12;9.10;;;5.83;;
3379;SDS011;1703;51.964;7.642;2023-07-02T13:38:39;7.67;;;4.70;;
3379;SDS011;1703;51.964;7.642;2023-07-02T13:41:06;9.13;;;5.73;;
3379;SDS011;1703;51.964;7.642;2023-07-02T13:43:32;10.07;;;5.93;;
3379;SDS011;1703;51.964;7.642;2023-07-02T13:46:00;10.60;;;5.43;;
3379;SDS011;1703;51.964;7.642;2023-07-02T13:48:27;13.37;;;5.50;;
3379;SDS011;1703;51.964;7.642;2023-07-02T13:50:53;9.77;;;6.20;;
3379;SDS011;1703;51.964;7.642;2023-07-02T13:53:22;11.40;;;6.07;;
3379;SDS011;1703;51.964;7.642;2023-07-02T13:55:48;8.40;;;4.83;;
3379;SDS011;1703;51.964;7.642;2023-07-02T13:58:15;10.07;;;5.50;;
3379;SDS011;1703;51.964;7.642;2023-07-02T14:00:43;17.20;;;5.80;;
3379;SDS011;1703;51.964;7.642;2023-07-02T14:03:10;10.73;;;5.10;;
3379;SDS011;1703;51.964;7.642;2023-07-02T14:05:37;8.93;;;5.73;;
3379;SDS011;1703;51.964;7.642;2023-07-02T14:08:04;7.97;;;5.37;;
3379;SDS011;1703;51.964;7.642;2023-07-02T14:10:30;16.50;;;7.23;;
3379;SDS011;1703;51.964;7.642;2023-07-02T14:12:57;9.77;;;6.33;;
3379;SDS011;1703;51.964;7.642;2023-07-02T14:15:24;9.00;;;5.17;;
3379;SDS011;1703;51.964;7.642;2023-07-02T14:17:54;10.03;;;5.57;;
3379;SDS011;1703;51.964;7.642;2023-07-02T14:20:20;11.63;;;5.70;;
3379;SDS011;1703;51.964;7.642;2023-07-02T14:22:47;16.40;;;6.17;;
3379;SDS011;1703;51.964;7.642;2023-07-02T14:25:14;14.33;;;4.67;;
3379;SDS011;1703;51.964;7.642;2023-07-02T14:27:41;13.43;;;5.80;;
3379;SDS011;1703;51.964;7.642;2023-07-02T14:30:12;9.37;;;5.60;;
3379;SDS011;1703;51.964;7.642;2023-07-02T14:32:39;8.40;;;4.93;;
3379;SDS011;1703;51.964;7.642;2023-07-02T14:35:09;14.50;;;5.67;;
3379;SDS011;1703;51.964;7.642;2023-07-02T14:37:36;13.03;;;5.20;;
3379;SDS011;1703;51.964;7.642;2023-07-02T14:40:03;9.87;;;4.80;;
3379;SDS011;1703;51.964;7.642;2023-07-02T14:42:31;7.33;;;4.63;;
3379;SDS011;1703;51.964;7.642;2023-07-02T14:44:58;6.30;;;4.40;;
3379;SDS011;1703;51.964;7.642;2023-07-02T14:47:24;12.07;;;5.50;;
3379;SDS011;1703;51.964;7.642;2023-07-02T14:49:51;7.33;;;4.60;;
3379;SDS011;1703;51.964;7.642;2023-07-02T14:52:19;13.90;;;4.83;;
3379;SDS011;1703;51.964;7.642;2023-07-02T14:54:46;10.57;;;5.40;;
3379;SDS011;1703;51.964;7.642;2023-07-02T14:57:13;10.47;;;4.00;;
3379;SDS011;1703;51.964;7.642;2023-07-02T14:59:42;15.37;;;5.97;;
3379;SDS011;1703;51.964;7.642;2023-07-02T15:02:09;10.00;;;5.43;;
3379;SDS011;1703;51.964;7.642;2023-07-02T15:04:37;20.13;;;4.57;;
3379;SDS011;1703;51.964;7.642;2023-07-02T15:07:04;8.83;;;4.87;;